Time;durP1;ratioP1;P1;durP2;ratioP2;P2;SDS_P1;SDS_P2;PMS_P1;PMS_P2;Temp;Humidity;BMP_temperature;BMP_pressure;BME280_temperature;BME280_humidity;BME280_pressure;Samples;Min_cycle;Max_cycle;Signal;HPM_P1;HPM_P2
2022/12/15 00:40:06;;;;;;;8.00;7.80;;;-2.50;99.90;;;;;;5144707;27;20222;-82
2022/12/15 00:42:36;;;;;;;8.27;8.07;;;-2.60;99.90;;;;;;5144254;27;20237;-82
2022/12/15 00:45:13;;;;;;;8.40;8.20;;;-2.70;99.90;;;;;;5143381;27;20297;-82
2022/12/15 00:47:40;;;;;;;8.10;7.90;;;-2.70;99.90;;;;;;5143488;27;20268;-82
2022/12/15 01:20:33;;;;;;;7.90;7.70;;;-2.70;99.90;;;;;;5140236;28;20200;-81
2022/12/15 01:23:01;;;;;;;8.10;7.90;;;-2.80;99.90;;;;;;5126827;28;20228;-81
2022/12/15 01:25:30;;;;;;;8.17;7.97;;;-2.90;99.90;;;;;;5125610;27;20284;-81
2022/12/15 01:28:00;;;;;;;8.07;7.87;;;-2.90;99.90;;;;;;5125403;28;20256;-81
2022/12/15 01:30:29;;;;;;;8.00;7.80;;;-2.80;99.90;;;;;;5124648;28;20241;-81
2022/12/15 01:33:08;;;;;;;8.10;7.90;;;-2.80;99.90;;;;;;5124209;28;20229;-81
2022/12/15 01:35:37;;;;;;;7.53;7.33;;;-2.80;99.90;;;;;;5124125;28;20314;-81
2022/12/15 01:38:08;;;;;;;8.03;7.83;;;-2.70;99.90;;;;;;5124076;28;20339;-81
2022/12/15 01:40:44;;;;;;;8.10;7.90;;;-2.80;99.90;;;;;;5124516;27;20209;-81
2022/12/15 01:43:15;;;;;;;8.20;8.00;;;-2.70;99.90;;;;;;5124401;28;20232;-81
2022/12/15 01:45:53;;;;;;;8.10;7.90;;;-2.70;99.90;;;;;;5124225;28;20329;-81
2022/12/15 01:48:31;;;;;;;8.13;7.93;;;-2.70;99.90;;;;;;5124689;28;20232;-81
2022/12/15 01:51:11;;;;;;;8.03;7.83;;;-2.60;99.90;;;;;;5124340;28;20228;-82
2022/12/15 01:53:48;;;;;;;7.90;7.70;;;-2.60;99.90;;;;;;5124597;28;20237;-81
2022/12/15 01:56:18;;;;;;;8.20;8.00;;;-2.60;99.90;;;;;;5123433;28;20233;-81
2022/12/15 01:58:49;;;;;;;8.10;7.90;;;-2.50;99.90;;;;;;5124498;28;20254;-81
2022/12/15 02:01:17;;;;;;;8.27;8.07;;;-2.50;99.90;;;;;;5124256;27;20217;-82
2022/12/15 02:03:58;;;;;;;8.20;8.00;;;-2.50;99.90;;;;;;5123924;27;20267;-82
2022/12/15 02:06:26;;;;;;;8.23;8.03;;;-2.40;99.90;;;;;;5123716;28;20242;-82
2022/12/15 02:09:02;;;;;;;8.40;8.20;;;-2.50;99.90;;;;;;5124954;27;20252;-81
2022/12/15 02:11:59;;;;;;;8.10;7.90;;;-2.50;99.90;;;;;;5123819;28;20304;-81
2022/12/15 02:14:46;;;;;;;8.13;7.93;;;-2.50;99.90;;;;;;5123883;28;20320;-82
2022/12/15 02:17:42;;;;;;;8.00;7.80;;;-2.50;99.90;;;;;;5124364;28;20316;-81
2022/12/15 02:20:55;;;;;;;8.20;8.00;;;-2.50;99.90;;;;;;5125110;28;20260;-81
2022/12/15 02:24:27;;;;;;;8.30;8.10;;;-2.50;99.90;;;;;;5124106;28;20304;-81
2022/12/15 02:27:31;;;;;;;8.10;7.90;;;-2.50;99.90;;;;;;5103488;28;20241;-81
2022/12/15 02:30:36;;;;;;;8.00;7.80;;;-2.50;99.90;;;;;;5102871;28;20261;-81
2022/12/15 02:33:13;;;;;;;8.33;8.13;;;-2.60;99.90;;;;;;5102792;28;20287;-81
2022/12/15 02:36:00;;;;;;;8.17;7.97;;;-2.60;99.90;;;;;;5101880;28;20239;-81
2022/12/15 02:38:40;;;;;;;8.20;8.00;;;-2.60;99.90;;;;;;5103409;28;20231;-81
2022/12/15 02:41:36;;;;;;;8.20;8.00;;;-2.50;99.90;;;;;;5102477;28;20230;-81
2022/12/15 02:44:22;;;;;;;8.37;8.17;;;-2.50;99.90;;;;;;5102034;28;20324;-81
2022/12/15 02:47:19;;;;;;;8.60;8.40;;;-2.60;99.90;;;;;;5101956;28;20229;-81
2022/12/15 02:50:14;;;;;;;8.30;8.10;;;-2.60;99.90;;;;;;5102946;28;20320;-82
2022/12/15 02:53:00;;;;;;;8.40;8.20;;;-2.60;99.90;;;;;;5102470;28;20231;-82
2022/12/15 02:55:39;;;;;;;8.40;8.20;;;-2.60;99.90;;;;;;5102127;28;20232;-81
2022/12/15 02:58:17;;;;;;;8.07;7.87;;;-2.60;99.90;;;;;;5102484;28;20225;-82
2022/12/15 03:00:57;;;;;;;8.30;8.10;;;-2.60;99.90;;;;;;5106156;28;20319;-82
2022/12/15 03:03:34;;;;;;;8.33;8.13;;;-2.60;99.90;;;;;;5123058;28;20232;-82
2022/12/15 03:06:02;;;;;;;8.20;8.00;;;-2.60;99.90;;;;;;5122658;28;20257;-81
2022/12/15 03:08:33;;;;;;;8.37;8.17;;;-2.60;99.90;;;;;;5125922;28;20250;-81
2022/12/15 03:11:01;;;;;;;8.20;8.00;;;-2.60;99.90;;;;;;5132604;27;20233;-81
2022/12/15 03:13:34;;;;;;;8.23;8.03;;;-2.70;99.90;;;;;;5133992;28;20222;-81
2022/12/15 03:16:01;;;;;;;8.00;7.80;;;-2.70;99.90;;;;;;5129086;27;20306;-81
2022/12/15 03:18:33;;;;;;;8.00;7.80;;;-2.60;99.90;;;;;;5129418;28;20293;-82
2022/12/15 03:21:00;;;;;;;7.73;7.53;;;-2.60;99.90;;;;;;5129000;28;20224;-81
2022/12/15 03:23:29;;;;;;;8.10;7.90;;;-2.60;99.90;;;;;;5127548;28;20283;-81
2022/12/15 03:25:58;;;;;;;8.07;7.87;;;-2.50;99.90;;;;;;5127365;28;20315;-82
2022/12/15 03:28:30;;;;;;;8.20;8.00;;;-2.50;99.90;;;;;;5127248;28;20305;-82
2022/12/15 03:30:58;;;;;;;8.00;7.80;;;-2.50;99.90;;;;;;5126429;28;20228;-81
2022/12/15 03:33:27;;;;;;;8.10;7.90;;;-2.50;99.90;;;;;;5137778;28;20225;-81
2022/12/15 03:36:05;;;;;;;7.87;7.67;;;-2.40;99.90;;;;;;5138313;28;20251;-81
2022/12/15 03:38:35;;;;;;;8.00;7.80;;;-2.40;99.90;;;;;;5129669;28;20233;-81
2022/12/15 03:41:04;;;;;;;8.00;7.80;;;-2.40;99.90;;;;;;5128065;28;20244;-82
2022/12/15 03:43:34;;;;;;;8.33;8.13;;;-2.50;99.90;;;;;;5128385;28;20299;-82
2022/12/15 03:46:02;;;;;;;7.80;7.60;;;-2.50;99.90;;;;;;5126596;27;20248;-81
2022/12/15 03:48:32;;;;;;;8.10;7.90;;;-2.50;99.90;;;;;;5126720;28;20221;-82
2022/12/15 03:51:10;;;;;;;7.67;7.47;;;-2.50;99.90;;;;;;5126432;27;20236;-81
2022/12/15 03:53:48;;;;;;;8.03;7.83;;;-2.40;99.90;;;;;;5126882;28;20228;-81
2022/12/15 03:56:19;;;;;;;7.87;7.67;;;-2.40;99.90;;;;;;5125673;28;20327;-81
2022/12/15 03:58:57;;;;;;;8.00;7.80;;;-2.40;99.90;;;;;;5125878;28;20294;-81
2022/12/15 04:01:30;;;;;;;7.97;7.77;;;-2.40;99.90;;;;;;5126393;28;20315;-81
2022/12/15 04:03:58;;;;;;;7.97;7.77;;;-2.30;99.90;;;;;;5126205;28;20237;-82
2022/12/15 04:06:29;;;;;;;7.80;7.60;;;-2.30;99.90;;;;;;5125998;28;20227;-82
2022/12/15 04:08:57;;;;;;;7.67;7.47;;;-2.30;99.90;;;;;;5126820;28;20241;-81
2022/12/15 04:11:25;;;;;;;7.47;7.27;;;-2.30;99.90;;;;;;5126276;28;20226;-81
2022/12/15 04:14:03;;;;;;;7.60;7.40;;;-2.30;99.90;;;;;;5127064;28;20228;-81
2022/12/15 04:16:33;;;;;;;7.30;7.10;;;-2.30;99.90;;;;;;5126603;28;20319;-81
2022/12/15 04:21:51;;;;;;;7.20;7.00;;;-2.30;99.90;;;;;;5127300;28;20216;-81
2022/12/15 05:33:19;;;;;;;7.50;7.30;;;-2.40;99.90;;;;;;5125976;28;20327;-82
2022/12/15 05:35:51;;;;;;;7.50;7.30;;;-2.30;99.90;;;;;;5126186;27;20222;-81
2022/12/15 05:38:18;;;;;;;7.20;7.00;;;-2.30;99.90;;;;;;5125481;27;21037;-81
2022/12/15 05:40:47;;;;;;;7.40;7.20;;;-2.30;99.90;;;;;;5126367;27;20300;-81
2022/12/15 05:43:29;;;;;;;7.10;6.90;;;-2.20;99.90;;;;;;5128078;27;20215;-81
2022/12/15 05:45:56;;;;;;;7.40;7.20;;;-2.20;99.90;;;;;;5140517;27;20261;-81
2022/12/15 05:48:25;;;;;;;7.60;7.40;;;-2.10;99.90;;;;;;5129896;27;20235;-81
2022/12/15 05:50:54;;;;;;;7.83;7.63;;;-2.20;99.90;;;;;;5128270;28;20225;-81
2022/12/15 05:53:23;;;;;;;7.87;7.67;;;-2.30;99.90;;;;;;5127038;28;20233;-81
2022/12/15 05:55:56;;;;;;;7.37;7.17;;;-2.30;99.90;;;;;;5126851;28;20286;-81
2022/12/15 05:58:26;;;;;;;7.60;7.40;;;-2.30;99.90;;;;;;5127139;28;20256;-82
2022/12/15 06:00:54;;;;;;;7.13;6.93;;;-2.30;99.90;;;;;;5127075;27;20227;-81
2022/12/15 06:03:22;;;;;;;7.40;7.20;;;-2.30;99.90;;;;;;5127365;28;20237;-81
2022/12/15 06:05:52;;;;;;;7.40;7.20;;;-2.30;99.90;;;;;;5126442;27;20234;-82
2022/12/15 06:08:22;;;;;;;7.37;7.17;;;-2.30;99.90;;;;;;5126004;28;20603;-81
2022/12/15 06:10:53;;;;;;;7.80;7.60;;;-2.30;99.90;;;;;;5126087;28;20288;-81
2022/12/15 06:13:21;;;;;;;7.60;7.40;;;-2.30;99.90;;;;;;5127119;27;20285;-81
2022/12/15 06:16:17;;;;;;;7.70;7.50;;;-2.20;99.90;;;;;;5126507;28;20231;-81
2022/12/15 06:18:47;;;;;;;7.60;7.40;;;-2.20;99.90;;;;;;5127503;28;20234;-81
2022/12/15 06:21:16;;;;;;;7.50;7.30;;;-2.20;99.90;;;;;;5126652;28;20241;-82
2022/12/15 06:23:45;;;;;;;7.90;7.70;;;-2.30;99.90;;;;;;5126757;27;20228;-81
2022/12/15 06:26:16;;;;;;;7.60;7.40;;;-2.30;99.90;;;;;;5126211;27;20233;-81
2022/12/15 06:28:44;;;;;;;7.70;7.50;;;-2.30;99.90;;;;;;5127027;27;20334;-81
2022/12/15 06:31:14;;;;;;;7.80;7.60;;;-2.30;99.90;;;;;;5126988;28;20246;-81
2022/12/15 06:33:43;;;;;;;7.60;7.40;;;-2.30;99.90;;;;;;5126602;28;20256;-81
2022/12/15 06:36:13;;;;;;;7.90;7.70;;;-2.40;99.90;;;;;;5126404;28;20260;-81
2022/12/15 06:38:42;;;;;;;7.57;7.37;;;-2.30;99.90;;;;;;5127428;27;20232;-81
2022/12/15 06:41:11;;;;;;;7.80;7.60;;;-2.30;99.90;;;;;;5126159;28;20243;-81
2022/12/15 06:43:41;;;;;;;7.70;7.50;;;-2.20;99.90;;;;;;5126770;28;20317;-81
2022/12/15 06:46:10;;;;;;;8.07;7.87;;;-2.30;99.90;;;;;;5126567;28;20282;-81
2022/12/15 06:48:48;;;;;;;8.30;8.10;;;-2.30;99.90;;;;;;5127686;28;20226;-81
2022/12/15 06:51:17;;;;;;;8.30;8.10;;;-2.30;99.90;;;;;;5127442;28;20234;-81
2022/12/15 06:53:47;;;;;;;8.17;7.97;;;-2.40;99.90;;;;;;5131000;28;20274;-81
2022/12/15 06:58:43;;;;;;;8.40;8.20;;;-2.40;99.90;;;;;;5149331;22;20240;-83
2022/12/15 07:01:17;;;;;;;8.67;8.47;;;-2.30;99.90;;;;;;5133153;27;20235;-83
2022/12/15 07:03:47;;;;;;;8.77;8.57;;;-2.30;99.90;;;;;;5149493;27;20213;-82
2022/12/15 07:06:16;;;;;;;8.80;8.60;;;-2.20;99.90;;;;;;5145338;27;20294;-83
2022/12/15 07:08:53;;;;;;;8.60;8.40;;;-2.30;99.90;;;;;;5110324;28;20268;-83
2022/12/15 07:11:22;;;;;;;8.60;8.40;;;-2.30;99.90;;;;;;5101040;28;20229;-83
2022/12/15 07:13:54;;;;;;;8.50;8.30;;;-2.30;99.90;;;;;;5100272;28;20226;-83
2022/12/15 07:16:23;;;;;;;9.10;8.80;;;-2.30;99.90;;;;;;5108439;28;21060;-83
2022/12/15 07:18:52;;;;;;;8.40;8.20;;;-2.40;99.90;;;;;;5113541;28;20225;-83
2022/12/15 07:21:20;;;;;;;8.40;8.20;;;-2.30;99.90;;;;;;5123211;27;20264;-83
2022/12/15 07:23:49;;;;;;;8.50;8.30;;;-2.30;99.90;;;;;;5121059;27;20316;-83
2022/12/15 07:26:19;;;;;;;8.20;8.00;;;-2.20;99.90;;;;;;5120899;27;20213;-83
2022/12/15 07:28:48;;;;;;;8.53;8.33;;;-2.20;99.90;;;;;;5124356;27;20231;-83
2022/12/15 07:31:17;;;;;;;8.20;8.00;;;-2.10;99.90;;;;;;5125340;27;20241;-83
2022/12/15 07:33:50;;;;;;;7.80;7.60;;;-2.10;99.90;;;;;;5135218;27;20317;-82
2022/12/15 07:36:27;;;;;;;8.40;8.20;;;-2.10;99.90;;;;;;5132746;27;20216;-83
2022/12/15 07:40:08;;;;;;;8.20;8.00;;;-2.10;99.90;;;;;;5124996;27;20223;-84
2022/12/15 07:42:54;;;;;;;8.50;8.30;;;-2.10;99.90;;;;;;5120233;27;20279;-84
2022/12/15 07:51:23;;;;;;;8.30;8.10;;;-2.00;99.90;;;;;;5098995;28;20228;-83
2022/12/15 07:57:16;;;;;;;8.83;8.63;;;-2.00;99.90;;;;;;5099109;28;20251;-83
2022/12/15 07:59:45;;;;;;;8.80;8.60;;;-2.00;99.90;;;;;;5100394;28;20216;-83
2022/12/15 08:02:14;;;;;;;8.73;8.53;;;-2.10;99.90;;;;;;5106068;28;20238;-82
2022/12/15 08:04:43;;;;;;;8.50;8.30;;;-2.10;99.90;;;;;;5106505;28;20234;-83
2022/12/15 08:13:15;;;;;;;8.70;8.50;;;-2.10;99.90;;;;;;5076818;28;20229;-83
2022/12/15 08:15:45;;;;;;;8.80;8.60;;;-2.00;99.90;;;;;;5091553;28;20227;-84
2022/12/15 08:18:14;;;;;;;9.30;9.00;;;-2.00;99.90;;;;;;5082376;28;20417;-83
2022/12/15 08:20:55;;;;;;;8.80;8.60;;;-2.00;99.90;;;;;;5082532;28;20253;-82
2022/12/15 08:36:59;;;;;;;8.40;8.20;;;-1.90;99.90;;;;;;5135793;27;20541;-83
2022/12/15 08:39:39;;;;;;;8.50;8.30;;;-2.00;99.90;;;;;;5116445;27;20224;-82
2022/12/15 08:42:10;;;;;;;8.50;8.30;;;-2.00;99.90;;;;;;5116669;27;20229;-82
2022/12/15 08:44:43;;;;;;;8.70;8.50;;;-1.90;99.90;;;;;;5116611;27;20267;-83
2022/12/15 08:47:12;;;;;;;8.40;8.20;;;-1.90;99.90;;;;;;5116816;27;20237;-82
2022/12/15 08:49:43;;;;;;;8.67;8.47;;;-2.00;99.90;;;;;;5116363;27;20291;-82
2022/12/15 08:59:15;;;;;;;8.77;8.57;;;-1.90;99.90;;;;;;5134432;22;20238;-83
2022/12/15 09:08:29;;;;;;;8.43;8.23;;;-1.70;99.90;;;;;;5089487;28;20497;-81
2022/12/15 09:15:12;;;;;;;8.60;8.40;;;-1.50;99.90;;;;;;4974119;28;20312;-83
2022/12/15 09:24:34;;;;;;;8.60;8.40;;;-1.40;99.90;;;;;;5120275;28;20222;-83
2022/12/15 09:27:05;;;;;;;8.97;8.73;;;-1.30;99.90;;;;;;5117302;28;20308;-83
2022/12/15 09:29:36;;;;;;;9.27;8.97;;;-1.30;99.90;;;;;;5116576;28;20232;-83
2022/12/15 09:35:44;;;;;;;8.90;8.70;;;-1.40;99.90;;;;;;5115225;28;20231;-85
2022/12/15 09:41:34;;;;;;;8.70;8.50;;;-1.30;99.90;;;;;;5039680;28;20206;-84
2022/12/15 09:44:45;;;;;;;;;;;;;;;;;;;;;
2022/12/15 09:55:53;;;;;;;8.73;8.53;;;-1.30;99.90;;;;;;5064685;28;20220;-83
2022/12/15 10:02:46;;;;;;;8.90;8.70;;;-1.00;99.90;;;;;;5122892;28;20208;-83
2022/12/15 10:09:18;;;;;;;;;;;;;;;;;;;;;
2022/12/15 10:16:00;;;;;;;9.30;9.00;;;-1.00;99.90;;;;;;5127962;27;20224;-84
2022/12/15 10:22:04;;;;;;;8.20;8.00;;;-0.80;99.90;;;;;;5110292;28;20250;-83
2022/12/15 10:24:51;;;;;;;8.23;8.03;;;-0.80;99.90;;;;;;5118887;28;20276;-83
2022/12/15 10:34:37;;;;;;;8.70;8.50;;;-1.40;99.90;;;;;;5040645;28;20228;-82
2022/12/15 10:37:09;;;;;;;9.40;9.10;;;-1.50;99.90;;;;;;5101694;28;20309;-83
2022/12/15 10:42:56;;;;;;;9.13;8.83;;;-1.50;99.90;;;;;;5098303;28;20223;-83
2022/12/15 10:51:40;;;;;;;8.70;8.50;;;-1.50;99.90;;;;;;5102972;28;20355;-84
2022/12/15 11:14:23;;;;;;;8.50;8.30;;;-1.10;99.90;;;;;;5120853;27;20228;-84
2022/12/15 11:17:35;;;;;;;8.63;8.43;;;-1.10;99.90;;;;;;5121663;27;20234;-83
2022/12/15 11:20:12;;;;;;;8.80;8.60;;;-1.00;99.90;;;;;;5115881;27;20236;-82
2022/12/15 11:26:39;;;;;;;8.60;8.40;;;-1.00;99.90;;;;;;5097692;28;20224;-84
2022/12/15 11:29:28;;;;;;;8.60;8.40;;;-1.00;99.90;;;;;;5103640;28;20231;-84
2022/12/15 11:31:56;;;;;;;8.53;8.33;;;-0.90;99.90;;;;;;5102180;28;20240;-84
2022/12/15 11:34:27;;;;;;;8.70;8.50;;;-0.80;99.90;;;;;;5103240;28;20229;-83
2022/12/15 11:37:14;;;;;;;8.23;8.03;;;-0.80;99.90;;;;;;5106090;27;20224;-84
2022/12/15 11:40:16;;;;;;;8.90;8.70;;;-0.80;99.90;;;;;;5122006;28;20231;-85
2022/12/15 11:43:03;;;;;;;8.90;8.70;;;-0.60;99.90;;;;;;5121515;28;20262;-84
2022/12/15 11:45:42;;;;;;;8.87;8.67;;;-0.50;99.90;;;;;;5121301;28;20709;-84
2022/12/15 11:51:08;;;;;;;8.80;8.60;;;-0.40;99.90;;;;;;5120810;28;20290;-84
2022/12/15 11:54:02;;;;;;;8.47;8.27;;;-0.40;99.90;;;;;;5120839;28;20235;-84
2022/12/15 11:56:43;;;;;;;8.87;8.67;;;-0.30;99.90;;;;;;5110831;28;20227;-83
2022/12/15 11:59:50;;;;;;;8.93;8.73;;;-0.30;99.90;;;;;;5102640;28;20232;-85
2022/12/15 12:02:52;;;;;;;8.70;8.50;;;-0.30;99.90;;;;;;5099458;28;20314;-83
2022/12/15 12:05:56;;;;;;;8.70;8.50;;;-0.30;99.90;;;;;;5114278;28;20243;-83
2022/12/15 12:08:52;;;;;;;8.77;8.57;;;-0.20;99.90;;;;;;5118703;28;20225;-85
2022/12/15 12:11:48;;;;;;;9.00;8.70;;;-0.20;99.90;;;;;;5105829;28;20239;-83
2022/12/15 12:14:39;;;;;;;8.60;8.40;;;-0.20;99.90;;;;;;5099656;28;20301;-85
2022/12/15 12:17:40;;;;;;;8.57;8.37;;;-0.30;99.90;;;;;;5099580;28;20239;-85
2022/12/15 12:24:00;;;;;;;8.40;8.20;;;-0.20;99.90;;;;;;5099918;28;20232;-85
2022/12/15 12:30:28;;;;;;;8.90;8.70;;;-0.10;99.90;;;;;;5105875;28;20263;-84
2022/12/15 12:33:51;;;;;;;8.77;8.57;;;0.00;99.90;;;;;;5110918;28;20224;-82
2022/12/15 12:36:27;;;;;;;8.80;8.60;;;-0.10;99.90;;;;;;5102388;28;20287;-82
2022/12/15 12:39:22;;;;;;;8.57;8.37;;;0.10;99.90;;;;;;5100926;28;20229;-82
2022/12/15 12:42:02;;;;;;;9.10;8.80;;;0.10;99.90;;;;;;5101155;28;20228;-83
2022/12/15 12:44:37;;;;;;;9.07;8.77;;;0.10;99.90;;;;;;5100713;28;20221;-82
2022/12/15 12:47:15;;;;;;;9.17;8.87;;;0.10;99.90;;;;;;5103253;28;20233;-82
2022/12/15 12:49:47;;;;;;;9.10;8.80;;;0.20;99.90;;;;;;5101218;28;20324;-83
2022/12/15 12:52:23;;;;;;;9.23;8.93;;;0.20;99.90;;;;;;5099755;28;20245;-82
2022/12/15 12:57:42;;;;;;;9.10;8.80;;;0.20;99.90;;;;;;5122702;22;20316;-83
2022/12/15 13:00:36;;;;;;;9.27;8.97;;;0.10;99.90;;;;;;5104077;28;20268;-83
2022/12/15 13:03:22;;;;;;;9.40;9.10;;;0.00;99.90;;;;;;5105022;28;20233;-83
2022/12/15 13:05:53;;;;;;;9.20;8.90;;;-0.10;99.90;;;;;;5105036;28;20255;-84
2022/12/15 13:08:50;;;;;;;9.40;9.10;;;0.00;99.90;;;;;;5088499;28;20309;-84
2022/12/15 13:14:47;;;;;;;8.87;8.67;;;-0.10;99.90;;;;;;5069423;28;20226;-85
2022/12/15 13:17:35;;;;;;;9.20;8.90;;;-0.10;99.90;;;;;;5074794;28;20302;-83
2022/12/15 13:20:30;;;;;;;8.97;8.73;;;-0.10;99.90;;;;;;5076300;28;20298;-84
2022/12/15 13:23:35;;;;;;;9.33;9.03;;;0.00;99.90;;;;;;5070661;28;20234;-83
2022/12/15 13:26:23;;;;;;;9.30;9.00;;;0.00;99.90;;;;;;5069663;28;20243;-84
2022/12/15 13:29:02;;;;;;;9.40;9.10;;;0.10;99.90;;;;;;5068721;28;20230;-84
2022/12/15 13:31:49;;;;;;;9.07;8.80;;;0.20;99.90;;;;;;5069146;28;20226;-84
2022/12/15 13:34:27;;;;;;;9.23;8.93;;;0.20;99.90;;;;;;5068415;28;20380;-83
2022/12/15 13:37:04;;;;;;;9.37;9.07;;;0.00;99.90;;;;;;5077051;28;20300;-84
2022/12/15 13:39:52;;;;;;;9.50;9.20;;;0.00;99.90;;;;;;5087005;28;20261;-83
2022/12/15 13:42:37;;;;;;;9.20;8.90;;;-0.10;99.90;;;;;;5090818;28;20230;-84
2022/12/15 13:45:43;;;;;;;9.20;8.90;;;-0.10;99.90;;;;;;5092736;28;20256;-83
2022/12/15 13:48:29;;;;;;;9.13;8.83;;;0.00;99.90;;;;;;5085657;28;20332;-83
2022/12/15 13:51:10;;;;;;;9.10;8.80;;;0.10;99.90;;;;;;5076358;28;20261;-84
2022/12/15 13:53:45;;;;;;;9.10;8.80;;;0.20;99.90;;;;;;5089813;28;20283;-85
2022/12/15 13:56:29;;;;;;;8.90;8.70;;;0.30;99.90;;;;;;5087972;28;20272;-85
2022/12/15 13:59:05;;;;;;;8.63;8.43;;;0.30;99.90;;;;;;5084115;28;20229;-83
2022/12/15 14:01:34;;;;;;;9.33;9.03;;;0.30;99.90;;;;;;5085685;28;20322;-85
2022/12/15 14:04:14;;;;;;;8.63;8.43;;;0.30;99.90;;;;;;5088329;28;20711;-84
2022/12/15 14:06:50;;;;;;;8.70;8.50;;;0.30;99.90;;;;;;5083022;28;20288;-84
2022/12/15 14:09:29;;;;;;;8.83;8.63;;;0.20;99.90;;;;;;5082461;28;20257;-84
2022/12/15 14:11:58;;;;;;;8.70;8.50;;;0.20;99.90;;;;;;5084317;28;20230;-83
2022/12/15 14:14:29;;;;;;;8.50;8.30;;;0.20;99.90;;;;;;5087503;28;20291;-85
2022/12/15 14:17:08;;;;;;;8.60;8.40;;;0.10;99.90;;;;;;5085474;28;20269;-83
2022/12/15 14:19:46;;;;;;;8.90;8.70;;;0.20;99.90;;;;;;5076001;28;20284;-83
2022/12/15 14:22:39;;;;;;;8.30;8.10;;;0.20;99.90;;;;;;5065257;28;20215;-84
2022/12/15 14:25:20;;;;;;;8.30;8.10;;;0.20;99.90;;;;;;5077744;28;20210;-83
2022/12/15 14:27:49;;;;;;;8.40;8.20;;;0.20;99.90;;;;;;5073620;28;20237;-84
2022/12/15 14:30:27;;;;;;;8.37;8.17;;;0.10;99.90;;;;;;5068357;28;20288;-84
2022/12/15 14:33:05;;;;;;;8.30;8.10;;;0.10;99.90;;;;;;5068047;28;20242;-83
2022/12/15 14:35:42;;;;;;;8.37;8.17;;;0.00;99.90;;;;;;5065928;28;20255;-85
2022/12/15 14:38:30;;;;;;;8.70;8.50;;;-0.10;99.90;;;;;;5066560;28;20299;-83
2022/12/15 14:41:01;;;;;;;8.73;8.53;;;-0.20;99.90;;;;;;5070992;28;20278;-83
2022/12/15 14:43:36;;;;;;;8.70;8.50;;;-0.10;99.90;;;;;;5084807;28;20271;-84
2022/12/15 14:46:15;;;;;;;8.60;8.40;;;-0.10;99.90;;;;;;5083203;28;20226;-83
2022/12/15 14:48:54;;;;;;;8.73;8.53;;;-0.10;99.90;;;;;;5074619;28;20241;-83
2022/12/15 14:51:23;;;;;;;8.80;8.60;;;-0.10;99.90;;;;;;5066611;28;20298;-84
2022/12/15 14:53:55;;;;;;;8.80;8.60;;;-0.10;99.90;;;;;;5081553;28;20234;-84
2022/12/15 14:56:31;;;;;;;8.90;8.70;;;-0.10;99.90;;;;;;5084733;28;20313;-83
2022/12/15 14:59:09;;;;;;;9.23;8.93;;;-0.30;99.90;;;;;;5084760;28;20244;-83
2022/12/15 15:01:41;;;;;;;9.30;9.00;;;-0.50;99.90;;;;;;5085293;28;20244;-83
2022/12/15 15:04:28;;;;;;;9.20;8.90;;;-0.80;99.90;;;;;;5085802;28;20221;-85
2022/12/15 15:07:06;;;;;;;9.23;8.93;;;-0.90;99.90;;;;;;5085595;28;20229;-85
2022/12/15 15:09:41;;;;;;;8.80;8.60;;;-1.00;99.90;;;;;;5082193;28;20261;-84
2022/12/15 15:12:20;;;;;;;9.20;8.90;;;-1.10;99.90;;;;;;5081489;28;20265;-83
2022/12/15 15:14:52;;;;;;;8.93;8.73;;;-1.20;99.90;;;;;;5068143;28;20255;-84
2022/12/15 15:17:27;;;;;;;8.80;8.60;;;-1.30;99.90;;;;;;5084771;28;20257;-84
2022/12/15 15:20:00;;;;;;;9.20;8.90;;;-1.30;99.90;;;;;;5084560;28;20233;-84
2022/12/15 15:22:36;;;;;;;8.90;8.70;;;-1.30;99.90;;;;;;5086939;28;20320;-84
2022/12/15 15:25:40;;;;;;;8.63;8.43;;;-1.30;99.90;;;;;;5087682;28;20296;-84
2022/12/15 15:28:27;;;;;;;8.37;8.17;;;-1.30;99.90;;;;;;5085473;28;20229;-83
2022/12/15 15:30:59;;;;;;;8.30;8.10;;;-1.20;99.90;;;;;;5086138;28;20255;-84
2022/12/15 15:33:28;;;;;;;8.50;8.30;;;-1.30;99.90;;;;;;5087883;28;20221;-83
2022/12/15 15:35:58;;;;;;;8.30;8.10;;;-1.30;99.90;;;;;;5091370;28;20211;-84
2022/12/15 15:38:33;;;;;;;8.50;8.30;;;-1.20;99.90;;;;;;5094390;28;20285;-84
2022/12/15 15:41:22;;;;;;;7.70;7.50;;;-1.10;99.90;;;;;;5089841;28;20227;-84
2022/12/15 15:43:52;;;;;;;8.00;7.80;;;-1.20;99.90;;;;;;5089513;28;20285;-84
2022/12/15 15:46:28;;;;;;;8.20;8.00;;;-1.20;99.90;;;;;;5084552;28;20222;-84
2022/12/15 15:48:59;;;;;;;8.10;7.90;;;-1.20;99.90;;;;;;5087309;28;20316;-84
2022/12/15 15:59:49;;;;;;;8.00;7.80;;;-1.40;99.90;;;;;;5083077;28;20248;-84
2022/12/15 16:02:18;;;;;;;8.17;7.97;;;-1.40;99.90;;;;;;5083554;28;20233;-83
2022/12/15 16:04:49;;;;;;;7.90;7.70;;;-1.50;99.90;;;;;;5084356;28;20230;-83
2022/12/15 16:07:27;;;;;;;7.83;7.63;;;-1.50;99.90;;;;;;5091691;28;20225;-83
2022/12/15 16:09:56;;;;;;;8.20;8.00;;;-1.50;99.90;;;;;;5090749;28;20228;-83
2022/12/15 16:12:35;;;;;;;8.10;7.90;;;-1.50;99.90;;;;;;5083079;28;20261;-83
2022/12/15 16:15:13;;;;;;;7.97;7.77;;;-1.50;99.90;;;;;;5083525;28;20243;-84
2022/12/15 16:17:42;;;;;;;7.70;7.50;;;-1.70;99.90;;;;;;5075846;28;20249;-85
2022/12/15 16:20:11;;;;;;;7.83;7.63;;;-1.70;99.90;;;;;;5080700;28;20261;-82
2022/12/15 16:22:40;;;;;;;7.90;7.70;;;-1.70;99.90;;;;;;5083955;28;20413;-85
2022/12/15 16:25:20;;;;;;;8.07;7.87;;;-1.70;99.90;;;;;;5084376;28;20228;-84
2022/12/15 16:27:51;;;;;;;7.63;7.43;;;-1.60;99.90;;;;;;5081380;28;20263;-82
2022/12/15 16:30:27;;;;;;;7.83;7.63;;;-1.60;99.90;;;;;;5083237;28;20305;-82
2022/12/15 16:32:56;;;;;;;7.70;7.50;;;-1.50;99.90;;;;;;5077402;28;20235;-82
2022/12/15 16:35:26;;;;;;;7.50;7.30;;;-1.40;99.90;;;;;;5090621;28;20232;-81
2022/12/15 16:37:56;;;;;;;7.77;7.57;;;-1.30;99.90;;;;;;5096634;28;20245;-82
2022/12/15 16:40:25;;;;;;;7.43;7.23;;;-1.30;99.90;;;;;;5090455;28;20224;-82
2022/12/15 16:43:04;;;;;;;7.60;7.40;;;-1.30;99.90;;;;;;5088035;28;20240;-82
2022/12/15 16:45:32;;;;;;;6.93;6.73;;;-1.20;99.90;;;;;;5086905;28;20283;-82
2022/12/15 16:48:02;;;;;;;7.00;6.80;;;-1.20;99.90;;;;;;5087950;28;20241;-83
2022/12/15 16:50:39;;;;;;;7.10;6.90;;;-1.20;99.90;;;;;;5088141;28;20628;-83
2022/12/15 16:53:19;;;;;;;7.50;7.30;;;-1.30;99.90;;;;;;5088632;28;20293;-82
2022/12/15 16:55:48;;;;;;;7.70;7.50;;;-1.50;99.90;;;;;;5089889;28;20259;-83
2022/12/15 16:58:20;;;;;;;7.67;7.47;;;-1.70;99.90;;;;;;5083651;28;20252;-82
2022/12/15 17:00:49;;;;;;;7.70;7.50;;;-1.80;99.90;;;;;;5077445;28;20272;-82
2022/12/15 17:03:25;;;;;;;7.70;7.50;;;-1.80;99.90;;;;;;5084715;28;20301;-82
2022/12/15 17:05:55;;;;;;;7.50;7.30;;;-1.80;99.90;;;;;;5088195;28;20263;-82
2022/12/15 17:08:25;;;;;;;7.50;7.30;;;-1.80;99.90;;;;;;5089377;28;21112;-83
2022/12/15 17:10:53;;;;;;;7.60;7.40;;;-1.70;99.90;;;;;;5088510;28;20237;-83
2022/12/15 17:13:34;;;;;;;7.40;7.20;;;-1.70;99.90;;;;;;5087285;28;20310;-83
2022/12/15 17:16:02;;;;;;;7.40;7.20;;;-1.70;99.90;;;;;;5086942;28;20236;-82
2022/12/15 17:18:30;;;;;;;7.47;7.27;;;-1.60;99.90;;;;;;5086971;28;20272;-83
2022/12/15 17:21:08;;;;;;;7.50;7.30;;;-1.60;99.90;;;;;;5086708;28;20294;-83
2022/12/15 17:23:38;;;;;;;7.60;7.40;;;-1.50;99.90;;;;;;5087353;28;20231;-82
2022/12/15 17:26:07;;;;;;;7.50;7.30;;;-1.50;99.90;;;;;;5086835;28;20233;-83
2022/12/15 17:28:39;;;;;;;7.40;7.20;;;-1.60;99.90;;;;;;5085859;28;20229;-82
2022/12/15 17:31:14;;;;;;;7.60;7.40;;;-1.70;99.90;;;;;;5086764;28;20203;-82
2022/12/15 17:33:44;;;;;;;7.60;7.40;;;-1.70;99.90;;;;;;5085614;28;20228;-82
2022/12/15 17:36:16;;;;;;;7.70;7.50;;;-1.70;99.90;;;;;;5085798;28;20240;-82
2022/12/15 17:38:44;;;;;;;7.53;7.33;;;-1.70;99.90;;;;;;5084373;28;20247;-82
2022/12/15 17:41:15;;;;;;;7.70;7.50;;;-1.90;99.90;;;;;;5084857;28;20233;-83
2022/12/15 17:43:44;;;;;;;7.70;7.50;;;-1.90;99.90;;;;;;5088459;28;20251;-83
2022/12/15 17:46:12;;;;;;;7.43;7.23;;;-1.90;99.90;;;;;;5094060;28;20253;-82
2022/12/15 17:48:40;;;;;;;7.53;7.33;;;-1.90;99.90;;;;;;5090364;28;20322;-82
2022/12/15 17:53:57;;;;;;;7.80;7.60;;;-1.90;99.90;;;;;;5089975;28;20235;-82
2022/12/15 17:56:30;;;;;;;7.60;7.40;;;-2.00;99.90;;;;;;5089380;28;20236;-82
2022/12/15 17:59:00;;;;;;;8.00;7.80;;;-2.00;99.90;;;;;;5085853;28;20340;-82
2022/12/15 18:01:36;;;;;;;8.00;7.80;;;-2.00;99.90;;;;;;5084693;28;20246;-82
2022/12/15 18:04:08;;;;;;;8.00;7.80;;;-2.00;99.90;;;;;;5084847;28;20237;-82
2022/12/15 18:06:36;;;;;;;7.83;7.63;;;-2.00;99.90;;;;;;5085256;28;20226;-83
2022/12/15 18:09:05;;;;;;;7.80;7.60;;;-2.00;99.90;;;;;;5084598;28;20264;-82
2022/12/15 18:11:33;;;;;;;8.40;8.20;;;-2.10;99.90;;;;;;5084338;28;20259;-82
2022/12/15 18:14:13;;;;;;;8.20;8.00;;;-2.10;99.90;;;;;;5085508;28;20234;-82
2022/12/15 18:16:51;;;;;;;8.40;8.20;;;-2.10;99.90;;;;;;5078374;28;20230;-82
2022/12/15 18:19:22;;;;;;;8.30;8.10;;;-2.10;99.90;;;;;;5092196;28;20247;-82
2022/12/15 18:21:49;;;;;;;8.07;7.87;;;-2.10;99.90;;;;;;5074006;28;20217;-82
2022/12/15 18:26:59;;;;;;;8.23;8.03;;;-2.30;99.90;;;;;;5066735;28;20232;-82
2022/12/15 18:29:37;;;;;;;8.20;8.00;;;-2.30;99.90;;;;;;5064035;28;20227;-82
2022/12/15 18:32:06;;;;;;;8.20;8.00;;;-2.30;99.90;;;;;;5065533;28;20247;-82
2022/12/15 18:34:46;;;;;;;8.23;8.03;;;-2.30;99.90;;;;;;5068009;28;20226;-84
2022/12/15 18:37:21;;;;;;;8.10;7.90;;;-2.30;99.90;;;;;;5068677;28;20246;-83